createdAt,value
2022-11-14T00:02:23.241Z,98851.03
2022-11-14T00:07:16.006Z,98843.63
2022-11-14T00:12:08.051Z,98833.00
2022-11-14T00:16:59.824Z,98841.97
2022-11-14T00:21:53.132Z,98834.31
2022-11-14T00:26:44.819Z,98818.28
2022-11-14T00:31:36.618Z,98819.09
2022-11-14T00:36:28.405Z,98822.03
2022-11-14T00:41:20.143Z,98816.84
2022-11-14T00:46:11.800Z,98820.19
2022-11-14T00:51:03.655Z,98815.56
2022-11-14T00:55:55.305Z,98813.66
2022-11-14T01:00:47.228Z,98803.06
2022-11-14T01:05:47.238Z,98793.06
2022-11-14T01:10:43.292Z,98796.84
2022-11-14T01:15:39.611Z,98771.03
2022-11-14T01:20:31.495Z,98752.53
2022-11-14T01:25:23.374Z,98748.19
2022-11-14T01:30:15.350Z,98734.19
2022-11-14T01:35:07.348Z,98745.50
2022-11-14T01:39:59.075Z,98737.13
2022-11-14T01:44:52.868Z,98744.16
2022-11-14T01:49:52.709Z,98744.16
2022-11-14T01:54:50.777Z,98753.16
2022-11-14T01:59:44.992Z,98739.00
2022-11-14T02:04:43.252Z,98733.81
2022-11-14T02:09:38.049Z,98735.47
2022-11-14T02:14:30.832Z,98713.47
2022-11-14T02:19:22.711Z,98721.81
2022-11-14T02:24:14.591Z,98720.75
2022-11-14T02:29:07.599Z,98703.56
2022-11-14T02:33:59.486Z,98697.56
2022-11-14T02:38:51.408Z,98705.44
2022-11-14T02:43:43.342Z,98697.31
2022-11-14T02:48:35.083Z,98700.25
2022-11-14T02:53:26.752Z,98697.78
2022-11-14T02:58:18.601Z,98702.41
2022-11-14T03:03:10.408Z,98702.97
2022-11-14T03:08:02.155Z,98696.50
2022-11-14T03:12:57.257Z,98686.72
2022-11-14T03:17:49.284Z,98688.63
2022-11-14T03:22:41.046Z,98684.63
2022-11-14T03:27:32.750Z,98677.53
2022-11-14T03:32:24.466Z,98678.34
2022-11-14T03:37:16.331Z,98673.28
2022-11-14T03:42:08.230Z,98668.13
2022-11-14T03:47:00.118Z,98664.94
2022-11-14T03:51:51.853Z,98660.31
2022-11-14T03:56:43.597Z,98662.56
2022-11-14T04:01:35.245Z,98672.56
2022-11-14T04:06:26.831Z,98663.59
2022-11-14T04:11:19.243Z,98645.72
2022-11-14T04:16:11.010Z,98643.50
2022-11-14T04:21:02.816Z,98643.97
2022-11-14T04:25:54.452Z,98656.19
2022-11-14T04:30:46.330Z,98640.19
2022-11-14T04:35:38.089Z,98630.44
2022-11-14T04:40:29.946Z,98616.03
2022-11-14T04:45:21.739Z,98613.34
2022-11-14T04:50:13.978Z,98613.56
2022-11-14T04:55:05.994Z,98610.38
2022-11-14T04:59:57.661Z,98596.59
2022-11-14T05:04:49.525Z,98599.66
2022-11-14T05:09:41.412Z,98599.91
2022-11-14T05:14:33.386Z,98620.75
2022-11-14T05:19:25.067Z,98605.81
2022-11-14T05:24:16.652Z,98602.84
2022-11-14T05:29:08.392Z,98582.00
2022-11-14T05:34:00.120Z,98579.28
2022-11-14T05:38:52.306Z,98580.09
2022-11-14T05:43:44.732Z,98560.00
2022-11-14T05:48:37.138Z,98571.31
2022-11-14T05:53:30.845Z,98573.44
2022-11-14T05:58:22.638Z,98562.25
2022-11-14T06:03:15.261Z,98557.56
2022-11-14T06:08:07.059Z,98557.25
2022-11-14T06:12:58.914Z,98548.75
2022-11-14T06:17:53.857Z,98545.25
2022-11-14T06:22:45.450Z,98545.16
2022-11-14T06:27:37.166Z,98564.34
2022-11-14T06:32:28.802Z,98564.84
2022-11-14T06:37:20.532Z,98566.69
2022-11-14T06:42:12.156Z,98561.88
2022-11-14T06:47:03.904Z,98565.63
2022-11-14T06:51:55.629Z,98563.75
2022-11-14T06:56:47.383Z,98552.34
2022-11-14T07:01:39.085Z,98562.38
2022-11-14T07:06:31.614Z,98568.84
2022-11-14T07:11:26.698Z,98560.47
2022-11-14T07:16:19.328Z,98547.97
2022-11-14T07:21:13.327Z,98544.22
2022-11-14T07:26:07.493Z,98537.75
2022-11-14T07:30:59.494Z,98537.75
2022-11-14T07:35:52.085Z,98536.91
2022-11-14T07:40:43.904Z,98526.91
2022-11-14T07:45:35.699Z,98532.56
2022-11-14T07:50:28.611Z,98545.63
2022-11-14T07:55:20.997Z,98526.44
2022-11-14T08:00:13.709Z,98526.44
2022-11-14T08:05:05.775Z,98529.16
2022-11-14T08:09:57.469Z,98514.44
2022-11-14T08:14:49.123Z,98505.25
2022-11-14T08:19:40.869Z,98516.66
2022-11-14T08:24:32.559Z,98504.19
2022-11-14T08:29:24.409Z,98501.47
2022-11-14T08:34:16.091Z,98515.13
2022-11-14T08:39:07.786Z,98503.22
2022-11-14T08:43:59.381Z,98491.88
2022-11-14T08:48:51.042Z,98491.31
2022-11-14T08:53:42.884Z,98505.91
2022-11-14T08:58:34.847Z,98508.63
2022-11-14T09:03:26.557Z,98489.66
2022-11-14T09:08:18.252Z,98489.19
2022-11-14T09:13:09.857Z,98496.81
2022-11-14T09:18:01.703Z,98479.53
2022-11-14T09:22:53.571Z,98474.91
2022-11-14T09:27:45.309Z,98477.72
2022-11-14T09:32:36.952Z,98489.38
2022-11-14T09:37:28.749Z,98477.50
2022-11-14T09:42:41.984Z,98479.94
2022-11-14T09:47:42.142Z,98477.50
2022-11-14T09:52:55.549Z,98468.63
2022-11-14T09:57:48.009Z,98473.06
2022-11-14T10:03:05.215Z,98462.56
2022-11-14T10:08:13.149Z,98452.28
2022-11-14T10:13:47.082Z,98464.34
2022-11-14T10:18:54.270Z,98454.09
2022-11-14T10:23:52.496Z,98457.38
2022-11-14T10:29:36.868Z,98467.47
2022-11-14T10:34:35.684Z,98453.94
2022-11-14T10:45:24.372Z,98457.72
2022-11-14T10:50:25.060Z,98452.06
2022-11-14T10:55:37.201Z,98460.28
2022-11-14T11:00:33.694Z,98461.72
2022-11-14T11:05:30.708Z,98451.22
2022-11-14T11:10:42.654Z,98435.00
2022-11-14T11:15:41.457Z,98426.69
2022-11-14T11:20:36.300Z,98422.97
2022-11-14T11:25:30.808Z,98413.50
2022-11-14T11:30:23.925Z,98408.72
2022-11-14T11:35:17.349Z,98412.38
2022-11-14T11:40:18.404Z,98398.13
2022-11-14T11:45:17.654Z,98393.06
2022-11-14T11:50:16.210Z,98381.78
2022-11-14T11:55:29.682Z,98387.38
2022-11-14T12:00:22.435Z,98388.00
2022-11-14T12:05:20.504Z,98393.44
2022-11-14T12:16:02.689Z,98370.56
2022-11-14T12:21:26.924Z,98370.06
2022-11-14T12:26:37.573Z,98363.25
2022-11-14T12:36:47.672Z,98336.38
2022-11-14T12:41:48.442Z,98328.78
2022-11-14T12:47:04.553Z,98331.25
2022-11-14T12:51:56.370Z,98315.50
2022-11-14T13:02:45.148Z,98306.28
2022-11-14T13:08:19.192Z,98304.38
2022-11-14T13:13:34.903Z,98299.16
2022-11-14T13:18:48.396Z,98290.47
2022-11-14T13:23:44.803Z,98290.75
2022-11-14T13:28:36.513Z,98276.66
2022-11-14T13:33:49.863Z,98261.50
2022-11-14T13:38:59.996Z,98253.09
2022-11-14T13:44:06.585Z,98252.25
2022-11-14T13:49:35.851Z,98256.34
2022-11-14T13:54:29.254Z,98243.31
2022-11-14T14:00:02.762Z,98235.22
2022-11-14T14:05:16.143Z,98232.28
2022-11-14T14:10:30.204Z,98240.72
2022-11-14T14:15:29.727Z,98236.09
2022-11-14T14:20:30.104Z,98230.16
2022-11-14T14:25:25.994Z,98216.03
2022-11-14T14:30:19.440Z,98209.34
2022-11-14T14:35:27.485Z,98200.91
2022-11-14T14:40:35.424Z,98186.78
2022-11-14T14:45:29.479Z,98195.22
2022-11-14T14:50:24.394Z,98185.75
2022-11-14T14:55:24.005Z,98181.38
2022-11-14T15:00:23.207Z,98165.06
2022-11-14T15:05:26.375Z,98168.31
2022-11-14T15:10:29.753Z,98165.50
2022-11-14T15:15:25.678Z,98159.53
2022-11-14T15:20:24.518Z,98169.00
2022-11-14T15:25:20.327Z,98160.84
2022-11-14T15:30:21.974Z,98156.47
2022-11-14T15:35:24.870Z,98154.00
2022-11-14T15:40:22.042Z,98163.22
2022-11-14T15:45:25.526Z,98145.56
2022-11-14T15:50:17.142Z,98149.63
2022-11-14T15:55:16.750Z,98154.22
2022-11-14T16:00:12.813Z,98140.91
2022-11-14T16:05:05.151Z,98149.06
2022-11-14T16:09:56.771Z,98148.25
2022-11-14T16:14:48.435Z,98131.41
2022-11-14T16:19:40.192Z,98124.06
2022-11-14T16:24:34.153Z,98115.66
2022-11-14T16:29:26.377Z,98126.25
2022-11-14T16:34:23.766Z,98124.06
2022-11-14T16:39:15.846Z,98122.69
2022-11-14T16:44:14.660Z,98127.81
2022-11-14T16:49:06.811Z,98119.09
2022-11-14T16:53:58.682Z,98125.91
2022-11-14T16:58:54.664Z,98107.16
2022-11-14T17:03:46.472Z,98108.22
2022-11-14T17:08:38.312Z,98113.38
2022-11-14T17:13:32.263Z,98102.53
2022-11-14T17:18:24.149Z,98099.53
2022-11-14T17:23:15.878Z,98114.72
2022-11-14T17:28:07.521Z,98107.69
2022-11-14T17:32:59.230Z,98104.97
2022-11-14T17:37:52.304Z,98109.09
2022-11-14T17:42:45.621Z,98106.38
2022-11-14T17:47:37.291Z,98097.38
2022-11-14T17:52:28.849Z,98094.66
2022-11-14T17:57:20.647Z,98101.19
2022-11-14T18:02:14.273Z,98097.38
2022-11-14T18:07:05.955Z,98088.69
2022-11-14T18:11:57.588Z,98080.00
2022-11-14T18:17:11.724Z,98080.53
2022-11-14T18:22:00.978Z,98078.91
2022-11-14T18:26:53.326Z,98074.00
2022-11-14T18:31:45.180Z,98065.84
2022-11-14T18:36:37.039Z,98073.72
2022-11-14T18:41:28.899Z,98069.34
2022-11-14T18:46:22.430Z,98067.97
2022-11-14T18:51:18.068Z,98063.06
2022-11-14T18:56:15.915Z,98047.03
2022-11-14T19:01:12.438Z,98058.75
2022-11-14T19:06:05.592Z,98061.97
2022-11-14T19:11:04.889Z,98057.06
2022-11-14T19:16:04.857Z,98053.25
2022-11-14T19:21:01.242Z,98051.66
2022-11-14T19:25:58.638Z,98041.31
2022-11-14T19:30:50.260Z,98039.69
2022-11-14T19:35:41.843Z,98036.16
2022-11-14T19:40:33.522Z,98039.69
2022-11-14T19:45:25.289Z,98033.41
2022-11-14T19:50:17.076Z,98029.34
2022-11-14T19:55:08.787Z,98031.22
2022-11-14T20:00:00.721Z,98021.41
2022-11-14T20:04:52.421Z,98003.72
2022-11-14T20:09:44.010Z,97994.75
2022-11-14T20:14:35.878Z,97980.59
2022-11-14T20:19:27.735Z,97969.41
2022-11-14T20:24:22.544Z,97971.00
2022-11-14T20:29:14.217Z,97972.84
2022-11-14T20:34:06.192Z,97962.72
2022-11-14T20:38:58.255Z,97949.09
2022-11-14T20:43:50.020Z,97948.97
2022-11-14T20:48:42.247Z,97947.19
2022-11-14T20:53:34.779Z,97946.56
2022-11-14T20:58:27.933Z,97946.53
2022-11-14T21:03:20.211Z,97948.13
2022-11-14T21:08:12.181Z,97944.88
2022-11-14T21:13:26.668Z,97943.72
2022-11-14T21:18:18.342Z,97935.47
2022-11-14T21:23:10.005Z,97932.41
2022-11-14T21:28:01.559Z,97927.44
2022-11-14T21:32:54.190Z,97914.91
2022-11-14T21:37:45.751Z,97926.75
2022-11-14T21:42:39.850Z,97926.16
2022-11-14T21:47:31.570Z,97916.59
2022-11-14T21:52:23.486Z,97902.69
2022-11-14T21:57:15.141Z,97895.59
2022-11-14T22:02:28.955Z,97908.31
2022-11-14T22:07:20.704Z,97889.00
2022-11-14T22:12:12.561Z,97881.59
2022-11-14T22:17:04.309Z,97880.94
2022-11-14T22:21:55.961Z,97885.16
2022-11-14T22:26:47.567Z,97886.97
2022-11-14T22:31:39.273Z,97877.16
2022-11-14T22:36:30.909Z,97865.22
2022-11-14T22:41:31.533Z,97855.41
2022-11-14T22:46:25.131Z,97836.91
2022-11-14T22:51:19.341Z,97829.78
2022-11-14T22:56:11.769Z,97817.28
2022-11-14T23:01:14.650Z,97818.94
2022-11-14T23:06:11.332Z,97812.63
2022-11-14T23:11:09.883Z,97802.31
2022-11-14T23:16:01.631Z,97794.16
2022-11-14T23:20:53.471Z,97787.88
2022-11-14T23:25:45.253Z,97778.66
2022-11-14T23:30:36.996Z,97764.81
2022-11-14T23:35:28.920Z,97759.34
2022-11-14T23:40:20.873Z,97745.81
2022-11-14T23:45:12.710Z,97743.84
2022-11-14T23:50:04.626Z,97743.25
2022-11-14T23:54:56.395Z,97729.22
2022-11-14T23:59:48.253Z,97714.91
